sensor_id;sensor_type;location;lat;lon;timestamp;P1;durP1;ratioP1;P2;durP2;ratioP2
57605;SDS011;43430;48.204;11.556;2022-09-01T00:02:04;29.63;;;18.92;;
57605;SDS011;43430;48.204;11.556;2022-09-01T00:04:32;32.17;;;19.88;;
57605;SDS011;43430;48.204;11.556;2022-09-01T00:07:02;32.80;;;20.95;;
57605;SDS011;43430;48.204;11.556;2022-09-01T00:09:31;30.17;;;19.10;;
57605;SDS011;43430;48.204;11.556;2022-09-01T00:11:57;36.97;;;21.73;;
57605;SDS011;43430;48.204;11.556;2022-09-01T00:14:24;34.13;;;19.88;;
57605;SDS011;43430;48.204;11.556;2022-09-01T00:16:52;34.88;;;19.88;;
57605;SDS011;43430;48.204;11.556;2022-09-01T00:19:18;32.80;;;21.00;;
57605;SDS011;43430;48.204;11.556;2022-09-01T00:21:44;39.08;;;23.17;;
57605;SDS011;43430;48.204;11.556;2022-09-01T00:24:11;37.97;;;21.00;;
57605;SDS011;43430;48.204;11.556;2022-09-01T00:26:39;34.85;;;20.58;;
57605;SDS011;43430;48.204;11.556;2022-09-01T00:29:05;38.47;;;22.30;;
57605;SDS011;43430;48.204;11.556;2022-09-01T00:31:32;36.72;;;22.52;;
57605;SDS011;43430;48.204;11.556;2022-09-01T00:33:58;38.58;;;22.65;;
57605;SDS011;43430;48.204;11.556;2022-09-01T00:36:25;39.53;;;23.92;;
57605;SDS011;43430;48.204;11.556;2022-09-01T00:38:50;41.42;;;22.75;;
57605;SDS011;43430;48.204;11.556;2022-09-01T00:41:18;37.58;;;21.55;;
57605;SDS011;43430;48.204;11.556;2022-09-01T00:43:46;34.38;;;21.08;;
57605;SDS011;43430;48.204;11.556;2022-09-01T00:46:18;36.63;;;21.23;;
57605;SDS011;43430;48.204;11.556;2022-09-01T00:48:56;39.40;;;21.95;;
57605;SDS011;43430;48.204;11.556;2022-09-01T00:51:28;35.60;;;21.17;;
57605;SDS011;43430;48.204;11.556;2022-09-01T00:53:55;33.78;;;21.05;;
57605;SDS011;43430;48.204;11.556;2022-09-01T00:56:22;35.78;;;21.02;;
57605;SDS011;43430;48.204;11.556;2022-09-01T00:58:49;36.92;;;21.23;;
57605;SDS011;43430;48.204;11.556;2022-09-01T01:01:16;32.20;;;19.45;;
57605;SDS011;43430;48.204;11.556;2022-09-01T01:03:42;37.13;;;21.85;;
57605;SDS011;43430;48.204;11.556;2022-09-01T01:06:11;39.83;;;22.67;;
57605;SDS011;43430;48.204;11.556;2022-09-01T01:08:40;41.72;;;23.60;;
57605;SDS011;43430;48.204;11.556;2022-09-01T01:11:09;39.08;;;21.95;;
57605;SDS011;43430;48.204;11.556;2022-09-01T01:16:20;40.13;;;23.50;;
57605;SDS011;43430;48.204;11.556;2022-09-01T01:18:47;41.40;;;24.40;;
57605;SDS011;43430;48.204;11.556;2022-09-01T01:21:34;41.40;;;23.65;;
57605;SDS011;43430;48.204;11.556;2022-09-01T01:24:25;45.22;;;26.38;;
57605;SDS011;43430;48.204;11.556;2022-09-01T01:26:52;48.58;;;27.42;;
57605;SDS011;43430;48.204;11.556;2022-09-01T01:29:21;50.80;;;27.08;;
57605;SDS011;43430;48.204;11.556;2022-09-01T01:31:48;47.50;;;27.38;;
57605;SDS011;43430;48.204;11.556;2022-09-01T01:34:16;44.08;;;26.05;;
57605;SDS011;43430;48.204;11.556;2022-09-01T01:36:42;48.50;;;27.65;;
57605;SDS011;43430;48.204;11.556;2022-09-01T01:39:09;48.03;;;27.70;;
57605;SDS011;43430;48.204;11.556;2022-09-01T01:41:37;57.17;;;29.20;;
57605;SDS011;43430;48.204;11.556;2022-09-01T01:44:06;50.03;;;27.52;;
57605;SDS011;43430;48.204;11.556;2022-09-01T01:46:32;48.65;;;27.00;;
57605;SDS011;43430;48.204;11.556;2022-09-01T01:48:59;50.28;;;27.65;;
57605;SDS011;43430;48.204;11.556;2022-09-01T01:51:27;45.22;;;25.98;;
57605;SDS011;43430;48.204;11.556;2022-09-01T01:53:55;45.60;;;26.40;;
57605;SDS011;43430;48.204;11.556;2022-09-01T01:56:24;53.22;;;26.45;;
57605;SDS011;43430;48.204;11.556;2022-09-01T01:58:52;50.55;;;26.95;;
57605;SDS011;43430;48.204;11.556;2022-09-01T02:01:24;42.80;;;24.55;;
57605;SDS011;43430;48.204;11.556;2022-09-01T02:03:52;46.25;;;25.77;;
57605;SDS011;43430;48.204;11.556;2022-09-01T02:06:19;42.53;;;23.92;;
57605;SDS011;43430;48.204;11.556;2022-09-01T02:08:48;44.03;;;23.75;;
57605;SDS011;43430;48.204;11.556;2022-09-01T02:11:16;41.35;;;23.63;;
57605;SDS011;43430;48.204;11.556;2022-09-01T02:13:42;44.75;;;23.65;;
57605;SDS011;43430;48.204;11.556;2022-09-01T02:16:10;43.97;;;24.23;;
57605;SDS011;43430;48.204;11.556;2022-09-01T02:18:47;42.88;;;24.60;;
57605;SDS011;43430;48.204;11.556;2022-09-01T02:21:15;42.58;;;25.42;;
57605;SDS011;43430;48.204;11.556;2022-09-01T02:23:45;42.38;;;24.50;;
57605;SDS011;43430;48.204;11.556;2022-09-01T02:26:13;40.30;;;23.27;;
57605;SDS011;43430;48.204;11.556;2022-09-01T02:28:40;44.92;;;25.30;;
57605;SDS011;43430;48.204;11.556;2022-09-01T02:31:07;42.17;;;23.73;;
57605;SDS011;43430;48.204;11.556;2022-09-01T02:33:36;39.90;;;23.42;;
57605;SDS011;43430;48.204;11.556;2022-09-01T02:36:11;41.08;;;23.02;;
57605;SDS011;43430;48.204;11.556;2022-09-01T02:38:39;40.63;;;24.08;;
57605;SDS011;43430;48.204;11.556;2022-09-01T02:41:10;39.22;;;23.23;;
57605;SDS011;43430;48.204;11.556;2022-09-01T02:43:38;39.33;;;22.92;;
57605;SDS011;43430;48.204;11.556;2022-09-01T02:46:05;42.83;;;23.83;;
57605;SDS011;43430;48.204;11.556;2022-09-01T02:48:41;39.53;;;23.17;;
57605;SDS011;43430;48.204;11.556;2022-09-01T02:51:17;42.97;;;24.17;;
57605;SDS011;43430;48.204;11.556;2022-09-01T02:53:44;46.10;;;23.17;;
57605;SDS011;43430;48.204;11.556;2022-09-01T02:56:16;42.00;;;24.30;;
57605;SDS011;43430;48.204;11.556;2022-09-01T02:58:44;40.20;;;23.65;;
57605;SDS011;43430;48.204;11.556;2022-09-01T03:01:15;43.67;;;24.45;;
57605;SDS011;43430;48.204;11.556;2022-09-01T03:03:47;39.50;;;23.52;;
57605;SDS011;43430;48.204;11.556;2022-09-01T03:06:14;38.70;;;23.23;;
57605;SDS011;43430;48.204;11.556;2022-09-01T03:08:42;35.90;;;22.42;;
57605;SDS011;43430;48.204;11.556;2022-09-01T03:11:07;36.05;;;21.58;;
57605;SDS011;43430;48.204;11.556;2022-09-01T03:13:35;43.72;;;24.65;;
57605;SDS011;43430;48.204;11.556;2022-09-01T03:16:02;42.30;;;23.40;;
57605;SDS011;43430;48.204;11.556;2022-09-01T03:18:28;42.70;;;23.63;;
57605;SDS011;43430;48.204;11.556;2022-09-01T03:20:54;39.67;;;23.02;;
57605;SDS011;43430;48.204;11.556;2022-09-01T03:23:20;40.42;;;23.73;;
57605;SDS011;43430;48.204;11.556;2022-09-01T03:25:46;37.88;;;22.88;;
57605;SDS011;43430;48.204;11.556;2022-09-01T03:28:11;39.00;;;22.98;;
57605;SDS011;43430;48.204;11.556;2022-09-01T03:30:38;41.55;;;23.73;;
57605;SDS011;43430;48.204;11.556;2022-09-01T03:33:08;41.38;;;22.45;;
57605;SDS011;43430;48.204;11.556;2022-09-01T03:35:33;40.45;;;23.80;;
57605;SDS011;43430;48.204;11.556;2022-09-01T03:37:59;40.08;;;24.45;;
57605;SDS011;43430;48.204;11.556;2022-09-01T03:40:27;38.72;;;22.77;;
57605;SDS011;43430;48.204;11.556;2022-09-01T03:42:59;38.28;;;22.10;;
57605;SDS011;43430;48.204;11.556;2022-09-01T03:45:29;41.97;;;24.67;;
57605;SDS011;43430;48.204;11.556;2022-09-01T03:47:59;38.15;;;23.27;;
57605;SDS011;43430;48.204;11.556;2022-09-01T03:50:27;41.05;;;22.75;;
57605;SDS011;43430;48.204;11.556;2022-09-01T03:52:55;41.10;;;23.70;;
57605;SDS011;43430;48.204;11.556;2022-09-01T03:55:24;36.55;;;22.55;;
57605;SDS011;43430;48.204;11.556;2022-09-01T03:57:55;40.28;;;23.27;;
57605;SDS011;43430;48.204;11.556;2022-09-01T04:00:31;38.45;;;22.10;;
57605;SDS011;43430;48.204;11.556;2022-09-01T04:03:00;38.60;;;22.55;;
57605;SDS011;43430;48.204;11.556;2022-09-01T04:05:28;40.20;;;22.88;;
57605;SDS011;43430;48.204;11.556;2022-09-01T04:07:56;41.10;;;22.45;;
57605;SDS011;43430;48.204;11.556;2022-09-01T04:10:25;38.53;;;22.10;;
57605;SDS011;43430;48.204;11.556;2022-09-01T04:12:50;42.60;;;24.48;;
57605;SDS011;43430;48.204;11.556;2022-09-01T04:15:16;39.88;;;23.02;;
57605;SDS011;43430;48.204;11.556;2022-09-01T04:17:45;37.40;;;21.92;;
57605;SDS011;43430;48.204;11.556;2022-09-01T04:20:29;38.63;;;22.95;;
57605;SDS011;43430;48.204;11.556;2022-09-01T04:23:04;46.47;;;25.63;;
57605;SDS011;43430;48.204;11.556;2022-09-01T04:25:35;41.10;;;23.08;;
57605;SDS011;43430;48.204;11.556;2022-09-01T04:28:04;40.85;;;24.42;;
57605;SDS011;43430;48.204;11.556;2022-09-01T04:30:38;39.95;;;22.63;;
57605;SDS011;43430;48.204;11.556;2022-09-01T04:33:07;43.95;;;23.38;;
57605;SDS011;43430;48.204;11.556;2022-09-01T04:35:36;42.03;;;24.42;;
57605;SDS011;43430;48.204;11.556;2022-09-01T04:38:02;38.83;;;22.77;;
57605;SDS011;43430;48.204;11.556;2022-09-01T04:40:28;42.03;;;23.88;;
57605;SDS011;43430;48.204;11.556;2022-09-01T04:42:53;42.55;;;24.42;;
57605;SDS011;43430;48.204;11.556;2022-09-01T04:45:18;43.10;;;25.05;;
57605;SDS011;43430;48.204;11.556;2022-09-01T04:47:46;43.63;;;26.48;;
57605;SDS011;43430;48.204;11.556;2022-09-01T04:50:12;44.28;;;25.63;;
57605;SDS011;43430;48.204;11.556;2022-09-01T04:52:38;43.95;;;25.40;;
57605;SDS011;43430;48.204;11.556;2022-09-01T04:55:06;45.05;;;25.00;;
57605;SDS011;43430;48.204;11.556;2022-09-01T04:57:32;42.15;;;24.58;;
57605;SDS011;43430;48.204;11.556;2022-09-01T04:59:59;41.03;;;24.35;;
57605;SDS011;43430;48.204;11.556;2022-09-01T05:02:25;42.63;;;24.08;;
57605;SDS011;43430;48.204;11.556;2022-09-01T05:04:52;38.22;;;22.45;;
57605;SDS011;43430;48.204;11.556;2022-09-01T05:07:19;39.75;;;22.88;;
57605;SDS011;43430;48.204;11.556;2022-09-01T05:09:45;41.92;;;24.38;;
57605;SDS011;43430;48.204;11.556;2022-09-01T05:12:10;37.63;;;23.25;;
57605;SDS011;43430;48.204;11.556;2022-09-01T05:14:37;39.13;;;23.73;;
57605;SDS011;43430;48.204;11.556;2022-09-01T05:17:06;39.30;;;23.08;;
57605;SDS011;43430;48.204;11.556;2022-09-01T05:19:34;40.65;;;22.60;;
57605;SDS011;43430;48.204;11.556;2022-09-01T05:22:05;44.25;;;24.67;;
57605;SDS011;43430;48.204;11.556;2022-09-01T05:24:32;45.75;;;24.42;;
57605;SDS011;43430;48.204;11.556;2022-09-01T05:26:59;44.08;;;24.52;;
57605;SDS011;43430;48.204;11.556;2022-09-01T05:29:24;41.90;;;23.85;;
57605;SDS011;43430;48.204;11.556;2022-09-01T05:31:51;44.05;;;24.65;;
57605;SDS011;43430;48.204;11.556;2022-09-01T05:34:19;43.03;;;23.92;;
57605;SDS011;43430;48.204;11.556;2022-09-01T05:36:50;42.15;;;24.27;;
57605;SDS011;43430;48.204;11.556;2022-09-01T05:39:17;44.60;;;25.55;;
57605;SDS011;43430;48.204;11.556;2022-09-01T05:41:42;44.55;;;24.00;;
57605;SDS011;43430;48.204;11.556;2022-09-01T05:44:10;45.22;;;27.73;;
57605;SDS011;43430;48.204;11.556;2022-09-01T05:46:36;37.72;;;23.48;;
57605;SDS011;43430;48.204;11.556;2022-09-01T05:49:04;42.30;;;24.02;;
57605;SDS011;43430;48.204;11.556;2022-09-01T05:51:31;37.28;;;22.17;;
57605;SDS011;43430;48.204;11.556;2022-09-01T05:53:59;33.42;;;19.50;;
57605;SDS011;43430;48.204;11.556;2022-09-01T05:56:27;35.50;;;21.38;;
57605;SDS011;43430;48.204;11.556;2022-09-01T05:58:54;34.15;;;20.55;;
57605;SDS011;43430;48.204;11.556;2022-09-01T06:01:21;33.10;;;19.08;;
57605;SDS011;43430;48.204;11.556;2022-09-01T06:03:49;35.45;;;20.00;;
57605;SDS011;43430;48.204;11.556;2022-09-01T06:06:18;29.58;;;17.52;;
57605;SDS011;43430;48.204;11.556;2022-09-01T06:08:48;28.25;;;16.95;;
57605;SDS011;43430;48.204;11.556;2022-09-01T06:11:14;25.05;;;15.80;;
57605;SDS011;43430;48.204;11.556;2022-09-01T06:13:42;24.92;;;14.95;;
57605;SDS011;43430;48.204;11.556;2022-09-01T06:16:09;23.85;;;14.95;;
57605;SDS011;43430;48.204;11.556;2022-09-01T06:18:36;24.30;;;15.52;;
57605;SDS011;43430;48.204;11.556;2022-09-01T06:21:07;23.60;;;13.93;;
57605;SDS011;43430;48.204;11.556;2022-09-01T06:23:36;22.80;;;14.38;;
57605;SDS011;43430;48.204;11.556;2022-09-01T06:26:01;21.00;;;13.73;;
57605;SDS011;43430;48.204;11.556;2022-09-01T06:28:27;20.88;;;13.52;;
57605;SDS011;43430;48.204;11.556;2022-09-01T06:30:54;25.15;;;14.88;;
57605;SDS011;43430;48.204;11.556;2022-09-01T06:33:21;22.05;;;14.48;;
57605;SDS011;43430;48.204;11.556;2022-09-01T06:35:50;22.25;;;14.60;;
57605;SDS011;43430;48.204;11.556;2022-09-01T06:38:17;24.60;;;15.38;;
57605;SDS011;43430;48.204;11.556;2022-09-01T06:40:43;25.67;;;15.23;;
57605;SDS011;43430;48.204;11.556;2022-09-01T06:43:10;22.02;;;13.95;;
57605;SDS011;43430;48.204;11.556;2022-09-01T06:45:40;21.55;;;14.30;;
57605;SDS011;43430;48.204;11.556;2022-09-01T06:48:07;22.13;;;13.63;;
57605;SDS011;43430;48.204;11.556;2022-09-01T06:50:33;20.67;;;13.32;;
57605;SDS011;43430;48.204;11.556;2022-09-01T06:52:59;23.38;;;12.60;;
57605;SDS011;43430;48.204;11.556;2022-09-01T06:55:32;21.30;;;12.45;;
57605;SDS011;43430;48.204;11.556;2022-09-01T06:58:01;19.55;;;13.27;;
57605;SDS011;43430;48.204;11.556;2022-09-01T07:00:29;19.42;;;12.15;;
57605;SDS011;43430;48.204;11.556;2022-09-01T07:02:55;20.58;;;12.75;;
57605;SDS011;43430;48.204;11.556;2022-09-01T07:05:21;19.00;;;12.35;;
57605;SDS011;43430;48.204;11.556;2022-09-01T07:07:52;19.27;;;12.40;;
57605;SDS011;43430;48.204;11.556;2022-09-01T07:10:22;18.45;;;12.05;;
57605;SDS011;43430;48.204;11.556;2022-09-01T07:12:55;19.33;;;11.50;;
57605;SDS011;43430;48.204;11.556;2022-09-01T07:15:25;20.20;;;11.80;;
57605;SDS011;43430;48.204;11.556;2022-09-01T07:17:52;18.90;;;11.73;;
57605;SDS011;43430;48.204;11.556;2022-09-01T07:20:21;20.05;;;11.80;;
57605;SDS011;43430;48.204;11.556;2022-09-01T07:22:49;19.00;;;12.68;;
57605;SDS011;43430;48.204;11.556;2022-09-01T07:25:16;20.10;;;11.73;;
57605;SDS011;43430;48.204;11.556;2022-09-01T07:27:44;17.42;;;11.50;;
57605;SDS011;43430;48.204;11.556;2022-09-01T07:30:14;16.83;;;11.85;;
57605;SDS011;43430;48.204;11.556;2022-09-01T07:32:42;16.02;;;11.02;;
57605;SDS011;43430;48.204;11.556;2022-09-01T07:35:09;17.95;;;12.10;;
57605;SDS011;43430;48.204;11.556;2022-09-01T07:37:35;18.60;;;11.00;;
57605;SDS011;43430;48.204;11.556;2022-09-01T07:40:05;15.45;;;10.55;;
57605;SDS011;43430;48.204;11.556;2022-09-01T07:42:32;15.02;;;11.00;;
57605;SDS011;43430;48.204;11.556;2022-09-01T07:44:57;16.63;;;11.60;;
57605;SDS011;43430;48.204;11.556;2022-09-01T07:47:24;14.20;;;10.05;;
57605;SDS011;43430;48.204;11.556;2022-09-01T07:49:49;18.08;;;11.40;;
57605;SDS011;43430;48.204;11.556;2022-09-01T07:52:14;14.85;;;9.68;;
57605;SDS011;43430;48.204;11.556;2022-09-01T07:54:40;11.80;;;8.45;;
57605;SDS011;43430;48.204;11.556;2022-09-01T07:57:06;15.00;;;9.10;;
57605;SDS011;43430;48.204;11.556;2022-09-01T07:59:31;14.15;;;8.88;;
57605;SDS011;43430;48.204;11.556;2022-09-01T08:01:59;15.43;;;8.23;;
57605;SDS011;43430;48.204;11.556;2022-09-01T08:04:24;15.07;;;9.35;;
57605;SDS011;43430;48.204;11.556;2022-09-01T08:06:50;11.73;;;8.20;;
57605;SDS011;43430;48.204;11.556;2022-09-01T08:09:15;13.18;;;8.48;;
57605;SDS011;43430;48.204;11.556;2022-09-01T08:11:41;12.10;;;8.73;;
57605;SDS011;43430;48.204;11.556;2022-09-01T08:14:06;13.95;;;8.82;;
57605;SDS011;43430;48.204;11.556;2022-09-01T08:19:53;10.63;;;8.00;;
57605;SDS011;43430;48.204;11.556;2022-09-01T08:22:19;13.75;;;8.43;;
57605;SDS011;43430;48.204;11.556;2022-09-01T08:24:48;13.15;;;8.43;;
57605;SDS011;43430;48.204;11.556;2022-09-01T08:27:14;12.40;;;8.60;;
57605;SDS011;43430;48.204;11.556;2022-09-01T08:29:39;12.07;;;7.00;;
57605;SDS011;43430;48.204;11.556;2022-09-01T08:32:05;12.45;;;8.25;;
57605;SDS011;43430;48.204;11.556;2022-09-01T08:34:31;11.35;;;7.68;;
57605;SDS011;43430;48.204;11.556;2022-09-01T08:36:57;9.57;;;6.35;;
57605;SDS011;43430;48.204;11.556;2022-09-01T08:39:22;8.60;;;6.30;;
57605;SDS011;43430;48.204;11.556;2022-09-01T08:41:57;8.07;;;5.53;;
57605;SDS011;43430;48.204;11.556;2022-09-01T08:47:10;8.50;;;6.28;;
57605;SDS011;43430;48.204;11.556;2022-09-01T08:49:38;8.63;;;6.07;;
57605;SDS011;43430;48.204;11.556;2022-09-01T08:57:41;9.20;;;6.50;;
57605;SDS011;43430;48.204;11.556;2022-09-01T09:00:10;11.30;;;6.50;;
57605;SDS011;43430;48.204;11.556;2022-09-01T09:11:04;12.30;;;7.68;;
57605;SDS011;43430;48.204;11.556;2022-09-01T09:19:04;11.98;;;7.57;;
57605;SDS011;43430;48.204;11.556;2022-09-01T09:21:38;11.10;;;7.50;;
57605;SDS011;43430;48.204;11.556;2022-09-01T09:24:13;10.85;;;7.43;;
57605;SDS011;43430;48.204;11.556;2022-09-01T09:26:47;11.43;;;6.47;;
57605;SDS011;43430;48.204;11.556;2022-09-01T09:29:17;9.45;;;7.53;;
57605;SDS011;43430;48.204;11.556;2022-09-01T09:31:45;9.57;;;6.70;;
57605;SDS011;43430;48.204;11.556;2022-09-01T09:37:18;10.13;;;5.80;;
57605;SDS011;43430;48.204;11.556;2022-09-01T09:40:06;8.07;;;5.65;;
57605;SDS011;43430;48.204;11.556;2022-09-01T09:42:34;8.77;;;4.65;;
57605;SDS011;43430;48.204;11.556;2022-09-01T09:45:04;8.13;;;5.35;;
57605;SDS011;43430;48.204;11.556;2022-09-01T09:47:45;8.23;;;5.63;;
57605;SDS011;43430;48.204;11.556;2022-09-01T09:50:18;8.50;;;4.47;;
57605;SDS011;43430;48.204;11.556;2022-09-01T09:52:47;6.47;;;3.70;;
57605;SDS011;43430;48.204;11.556;2022-09-01T09:55:27;6.35;;;4.35;;
57605;SDS011;43430;48.204;11.556;2022-09-01T09:57:55;7.05;;;3.50;;
57605;SDS011;43430;48.204;11.556;2022-09-01T10:00:28;5.88;;;3.33;;
57605;SDS011;43430;48.204;11.556;2022-09-01T10:02:59;5.93;;;3.00;;
57605;SDS011;43430;48.204;11.556;2022-09-01T10:07:52;6.32;;;3.00;;
57605;SDS011;43430;48.204;11.556;2022-09-01T10:12:51;4.95;;;2.78;;
57605;SDS011;43430;48.204;11.556;2022-09-01T10:15:17;5.00;;;2.20;;
57605;SDS011;43430;48.204;11.556;2022-09-01T10:17:47;5.05;;;1.92;;
57605;SDS011;43430;48.204;11.556;2022-09-01T10:20:21;4.07;;;1.63;;
57605;SDS011;43430;48.204;11.556;2022-09-01T10:25:27;4.15;;;2.08;;
57605;SDS011;43430;48.204;11.556;2022-09-01T10:27:57;4.65;;;2.13;;
57605;SDS011;43430;48.204;11.556;2022-09-01T10:30:30;3.70;;;2.08;;
57605;SDS011;43430;48.204;11.556;2022-09-01T10:32:59;4.78;;;2.25;;
57605;SDS011;43430;48.204;11.556;2022-09-01T10:35:32;5.47;;;2.30;;
57605;SDS011;43430;48.204;11.556;2022-09-01T10:38:05;3.63;;;2.10;;
57605;SDS011;43430;48.204;11.556;2022-09-01T10:40:34;3.67;;;2.38;;
57605;SDS011;43430;48.204;11.556;2022-09-01T10:43:23;4.18;;;1.67;;
57605;SDS011;43430;48.204;11.556;2022-09-01T10:45:50;3.10;;;2.00;;
57605;SDS011;43430;48.204;11.556;2022-09-01T10:56:22;3.72;;;1.63;;
57605;SDS011;43430;48.204;11.556;2022-09-01T10:58:59;3.72;;;1.63;;
57605;SDS011;43430;48.204;11.556;2022-09-01T11:04:04;3.13;;;0.93;;
57605;SDS011;43430;48.204;11.556;2022-09-01T11:09:05;2.10;;;1.30;;
57605;SDS011;43430;48.204;11.556;2022-09-01T11:11:42;3.15;;;1.17;;
57605;SDS011;43430;48.204;11.556;2022-09-01T11:14:18;3.30;;;1.73;;
57605;SDS011;43430;48.204;11.556;2022-09-01T11:25:08;4.82;;;2.10;;
57605;SDS011;43430;48.204;11.556;2022-09-01T11:44:09;2.75;;;1.05;;
57605;SDS011;43430;48.204;11.556;2022-09-01T11:46:37;2.85;;;1.08;;
57605;SDS011;43430;48.204;11.556;2022-09-01T11:49:07;2.65;;;1.25;;
57605;SDS011;43430;48.204;11.556;2022-09-01T11:51:50;2.00;;;0.98;;
57605;SDS011;43430;48.204;11.556;2022-09-01T11:54:16;3.17;;;1.20;;
57605;SDS011;43430;48.204;11.556;2022-09-01T11:56:41;3.30;;;1.33;;
57605;SDS011;43430;48.204;11.556;2022-09-01T11:59:07;3.35;;;1.40;;
57605;SDS011;43430;48.204;11.556;2022-09-01T12:01:33;3.63;;;1.88;;
57605;SDS011;43430;48.204;11.556;2022-09-01T12:04:17;3.53;;;2.03;;
57605;SDS011;43430;48.204;11.556;2022-09-01T12:06:49;3.85;;;1.85;;
57605;SDS011;43430;48.204;11.556;2022-09-01T12:09:17;2.05;;;1.40;;
57605;SDS011;43430;48.204;11.556;2022-09-01T12:11:43;4.70;;;1.40;;
57605;SDS011;43430;48.204;11.556;2022-09-01T12:14:09;3.45;;;1.83;;
57605;SDS011;43430;48.204;11.556;2022-09-01T12:16:37;3.95;;;1.83;;
57605;SDS011;43430;48.204;11.556;2022-09-01T12:19:05;4.25;;;1.95;;
57605;SDS011;43430;48.204;11.556;2022-09-01T12:24:18;3.75;;;2.25;;
57605;SDS011;43430;48.204;11.556;2022-09-01T12:26:46;4.25;;;2.55;;
57605;SDS011;43430;48.204;11.556;2022-09-01T12:29:15;2.80;;;1.73;;
57605;SDS011;43430;48.204;11.556;2022-09-01T12:31:42;3.03;;;1.48;;
57605;SDS011;43430;48.204;11.556;2022-09-01T12:37:04;2.25;;;1.33;;
57605;SDS011;43430;48.204;11.556;2022-09-01T12:39:34;4.57;;;1.45;;
57605;SDS011;43430;48.204;11.556;2022-09-01T12:44:41;2.53;;;1.27;;
57605;SDS011;43430;48.204;11.556;2022-09-01T12:47:12;2.17;;;1.27;;
57605;SDS011;43430;48.204;11.556;2022-09-01T12:49:58;3.22;;;0.95;;
57605;SDS011;43430;48.204;11.556;2022-09-01T12:52:29;2.60;;;1.30;;
57605;SDS011;43430;48.204;11.556;2022-09-01T12:57:23;3.70;;;2.08;;
57605;SDS011;43430;48.204;11.556;2022-09-01T13:00:05;3.80;;;1.58;;
57605;SDS011;43430;48.204;11.556;2022-09-01T13:02:50;3.88;;;1.60;;
57605;SDS011;43430;48.204;11.556;2022-09-01T13:05:34;3.60;;;1.50;;
57605;SDS011;43430;48.204;11.556;2022-09-01T13:08:05;4.68;;;1.73;;
57605;SDS011;43430;48.204;11.556;2022-09-01T13:10:34;3.95;;;1.30;;
57605;SDS011;43430;48.204;11.556;2022-09-01T13:13:04;2.08;;;1.17;;
57605;SDS011;43430;48.204;11.556;2022-09-01T13:15:31;3.22;;;1.13;;
57605;SDS011;43430;48.204;11.556;2022-09-01T13:17:57;2.10;;;1.13;;
57605;SDS011;43430;48.204;11.556;2022-09-01T13:20:23;2.78;;;0.98;;
57605;SDS011;43430;48.204;11.556;2022-09-01T13:22:48;3.10;;;1.20;;
57605;SDS011;43430;48.204;11.556;2022-09-01T13:25:15;4.93;;;1.45;;
57605;SDS011;43430;48.204;11.556;2022-09-01T13:27:42;2.65;;;1.25;;
57605;SDS011;43430;48.204;11.556;2022-09-01T13:30:19;2.47;;;1.10;;
57605;SDS011;43430;48.204;11.556;2022-09-01T13:32:46;6.57;;;1.38;;
57605;SDS011;43430;48.204;11.556;2022-09-01T13:35:12;2.42;;;1.30;;
57605;SDS011;43430;48.204;11.556;2022-09-01T13:37:40;3.85;;;1.55;;
57605;SDS011;43430;48.204;11.556;2022-09-01T13:40:06;3.13;;;1.48;;
57605;SDS011;43430;48.204;11.556;2022-09-01T13:42:40;3.33;;;1.33;;
57605;SDS011;43430;48.204;11.556;2022-09-01T13:45:10;2.88;;;1.13;;
57605;SDS011;43430;48.204;11.556;2022-09-01T13:47:42;2.55;;;1.20;;
57605;SDS011;43430;48.204;11.556;2022-09-01T13:50:09;2.08;;;1.10;;
57605;SDS011;43430;48.204;11.556;2022-09-01T13:52:41;2.75;;;1.20;;
57605;SDS011;43430;48.204;11.556;2022-09-01T13:55:11;1.85;;;0.88;;
57605;SDS011;43430;48.204;11.556;2022-09-01T13:57:42;2.33;;;1.08;;
57605;SDS011;43430;48.204;11.556;2022-09-01T14:00:09;2.80;;;1.30;;
57605;SDS011;43430;48.204;11.556;2022-09-01T14:02:39;1.55;;;0.80;;
57605;SDS011;43430;48.204;11.556;2022-09-01T14:05:07;3.45;;;1.35;;
57605;SDS011;43430;48.204;11.556;2022-09-01T14:07:33;4.28;;;1.20;;
57605;SDS011;43430;48.204;11.556;2022-09-01T14:09:58;4.00;;;1.30;;
57605;SDS011;43430;48.204;11.556;2022-09-01T14:12:24;2.22;;;0.95;;
57605;SDS011;43430;48.204;11.556;2022-09-01T14:14:50;1.98;;;1.13;;
57605;SDS011;43430;48.204;11.556;2022-09-01T14:17:15;3.60;;;1.30;;
57605;SDS011;43430;48.204;11.556;2022-09-01T14:19:41;2.60;;;1.17;;
57605;SDS011;43430;48.204;11.556;2022-09-01T14:22:06;2.60;;;1.25;;
57605;SDS011;43430;48.204;11.556;2022-09-01T14:24:35;2.33;;;1.05;;
57605;SDS011;43430;48.204;11.556;2022-09-01T14:27:01;3.28;;;1.10;;
57605;SDS011;43430;48.204;11.556;2022-09-01T14:29:27;2.72;;;0.90;;
57605;SDS011;43430;48.204;11.556;2022-09-01T14:31:53;3.50;;;0.73;;
57605;SDS011;43430;48.204;11.556;2022-09-01T14:34:21;3.50;;;0.80;;
57605;SDS011;43430;48.204;11.556;2022-09-01T14:36:48;4.05;;;0.90;;
57605;SDS011;43430;48.204;11.556;2022-09-01T14:39:16;2.22;;;0.75;;
57605;SDS011;43430;48.204;11.556;2022-09-01T14:41:41;2.83;;;0.90;;
57605;SDS011;43430;48.204;11.556;2022-09-01T14:44:07;2.15;;;0.52;;
57605;SDS011;43430;48.204;11.556;2022-09-01T14:46:32;2.75;;;0.73;;
57605;SDS011;43430;48.204;11.556;2022-09-01T14:48:59;3.45;;;1.05;;
57605;SDS011;43430;48.204;11.556;2022-09-01T14:51:27;2.67;;;0.70;;
57605;SDS011;43430;48.204;11.556;2022-09-01T14:53:54;1.17;;;0.60;;
57605;SDS011;43430;48.204;11.556;2022-09-01T14:56:20;3.10;;;0.98;;
57605;SDS011;43430;48.204;11.556;2022-09-01T14:58:47;3.97;;;0.60;;
57605;SDS011;43430;48.204;11.556;2022-09-01T15:01:14;1.38;;;0.50;;
57605;SDS011;43430;48.204;11.556;2022-09-01T15:03:41;1.60;;;0.50;;
57605;SDS011;43430;48.204;11.556;2022-09-01T15:06:07;1.38;;;0.52;;
57605;SDS011;43430;48.204;11.556;2022-09-01T15:08:36;1.30;;;0.40;;
57605;SDS011;43430;48.204;11.556;2022-09-01T15:11:02;1.50;;;0.52;;
57605;SDS011;43430;48.204;11.556;2022-09-01T15:13:31;2.80;;;0.80;;
57605;SDS011;43430;48.204;11.556;2022-09-01T15:15:56;1.50;;;0.60;;
57605;SDS011;43430;48.204;11.556;2022-09-01T15:18:23;2.08;;;0.70;;
57605;SDS011;43430;48.204;11.556;2022-09-01T15:20:48;3.45;;;0.70;;
57605;SDS011;43430;48.204;11.556;2022-09-01T15:23:16;2.10;;;0.68;;
57605;SDS011;43430;48.204;11.556;2022-09-01T15:25:44;3.00;;;0.60;;
57605;SDS011;43430;48.204;11.556;2022-09-01T15:28:10;2.17;;;0.80;;
57605;SDS011;43430;48.204;11.556;2022-09-01T15:30:35;2.33;;;0.68;;
57605;SDS011;43430;48.204;11.556;2022-09-01T15:33:01;2.38;;;0.85;;
57605;SDS011;43430;48.204;11.556;2022-09-01T15:35:27;2.00;;;0.63;;
57605;SDS011;43430;48.204;11.556;2022-09-01T15:37:53;1.38;;;0.70;;
57605;SDS011;43430;48.204;11.556;2022-09-01T15:40:21;1.30;;;0.50;;
57605;SDS011;43430;48.204;11.556;2022-09-01T15:42:47;1.85;;;0.50;;
57605;SDS011;43430;48.204;11.556;2022-09-01T15:45:14;1.98;;;0.55;;
57605;SDS011;43430;48.204;11.556;2022-09-01T15:47:42;3.38;;;0.82;;
57605;SDS011;43430;48.204;11.556;2022-09-01T15:50:09;1.60;;;0.60;;
57605;SDS011;43430;48.204;11.556;2022-09-01T15:55:24;1.27;;;0.45;;
57605;SDS011;43430;48.204;11.556;2022-09-01T15:57:54;1.85;;;0.63;;